Despina — SVDK — position and weather

sailwx.info

Track history (hours):
 
Tides and Currents Weather Stations Pressure Air Temp Water Temp Dewpoint Dewpoint Depression Visibility Wind Speed Wind Dir Waves Ship Positions

Despina

Last reported at 2015-Jan-19 16:10 UTC. Time now 2015-Jan-30 09:32 UTC.
Position N 35°60' W 005°09'.
Warning: this ship's position is 10 days out of date.

Length 225 m; draft 12.8 m.

Type: Cargo ship. MMSI: 239469000.

Date/timePositionNaut miles runAvg speedWind from/ knotsBaromVisibWave heightAir tempDewpointWater temp
2015-Jan-19 16:10N 35°60' W 005°09'  
2015-Jan-16 21:23N 37°30' W 022°33'1112.7
2015-Jan-16 20:33N 37°31' W 022°46'4912.3
2015-Jan-16 16:33N 37°33' W 023°49'1212.3
2015-Jan-16 15:33N 37°34' W 024°04'1312.6
2015-Jan-16 14:33N 37°34' W 024°20'1312.6
2015-Jan-16 13:33N 37°34' W 024°36'1312.6
2015-Jan-16 12:34N 37°35' W 024°52'1212.5
2015-Jan-16 11:34N 37°35' W 025°07'1312.9
2015-Jan-16 10:33N 37°35' W 025°24'1312.8
2015-Jan-16 09:34N 37°34' W 025°40'1312.8
2015-Jan-16 08:33N 37°34' W 025°56'1312.5
2015-Jan-16 07:34N 37°34' W 026°12'1312.7
2015-Jan-16 06:34N 37°34' W 026°28'1312.7
2015-Jan-16 05:33N 37°35' W 026°44'1312.8
2015-Jan-16 04:33N 37°35' W 026°60'1312.7
2015-Jan-16 03:34N 37°35' W 027°16'1312.6
2015-Jan-16 02:33N 37°35' W 027°32'1312.7
2015-Jan-16 01:33N 37°35' W 027°48'1312.7
2015-Jan-16 00:33N 37°34' W 028°04'1313.0
2015-Jan-15 23:33N 37°34' W 028°20'1313.0
2015-Jan-15 22:33N 37°33' W 028°37'1312.9
2015-Jan-15 21:33N 37°32' W 028°53'1312.7
2015-Jan-15 20:33N 37°32' W 029°09'1312.6
2015-Jan-15 19:33N 37°32' W 029°25'1412.5
2015-Jan-15 18:26N 37°32' W 029°43'1212.4
2015-Jan-15 17:30N 37°31' W 029°57'1412.7
2015-Jan-15 16:24N 37°31' W 030°15'1112.8
2015-Jan-15 15:34N 37°30' W 030°28'1312.5
2015-Jan-15 14:33N 37°29' W 030°44'  
Track history (hours):
 
Tides and Currents Weather Stations Pressure Air Temp Water Temp Dewpoint Dewpoint Depression Visibility Wind Speed Wind Dir Waves Ship Positions

Despina

Last reported at 2015-Jan-19 16:10 UTC. Time now 2015-Jan-30 09:32 UTC.
Position N 35°60' W 005°09'.
Warning: this ship's position is 10 days out of date.

Length 225 m; draft 12.8 m.

Type: Cargo ship. MMSI: 239469000.

Date/timePositionNaut miles runAvg speedWind from/ knotsBaromVisibWave heightAir tempDewpointWater temp
2015-Jan-19 16:10N 35°60' W 005°09'  
2015-Jan-16 21:23N 37°30' W 022°33'1112.7
2015-Jan-16 20:33N 37°31' W 022°46'4912.3
2015-Jan-16 16:33N 37°33' W 023°49'1212.3
2015-Jan-16 15:33N 37°34' W 024°04'1312.6
2015-Jan-16 14:33N 37°34' W 024°20'1312.6
2015-Jan-16 13:33N 37°34' W 024°36'1312.6
2015-Jan-16 12:34N 37°35' W 024°52'1212.5
2015-Jan-16 11:34N 37°35' W 025°07'1312.9
2015-Jan-16 10:33N 37°35' W 025°24'1312.8
2015-Jan-16 09:34N 37°34' W 025°40'1312.8
2015-Jan-16 08:33N 37°34' W 025°56'1312.5
2015-Jan-16 07:34N 37°34' W 026°12'1312.7
2015-Jan-16 06:34N 37°34' W 026°28'1312.7
2015-Jan-16 05:33N 37°35' W 026°44'1312.8
2015-Jan-16 04:33N 37°35' W 026°60'1312.7
2015-Jan-16 03:34N 37°35' W 027°16'1312.6
2015-Jan-16 02:33N 37°35' W 027°32'1312.7
2015-Jan-16 01:33N 37°35' W 027°48'1312.7
2015-Jan-16 00:33N 37°34' W 028°04'1313.0
2015-Jan-15 23:33N 37°34' W 028°20'1313.0
2015-Jan-15 22:33N 37°33' W 028°37'1312.9
2015-Jan-15 21:33N 37°32' W 028°53'1312.7
2015-Jan-15 20:33N 37°32' W 029°09'1312.6
2015-Jan-15 19:33N 37°32' W 029°25'1412.5
2015-Jan-15 18:26N 37°32' W 029°43'1212.4
2015-Jan-15 17:30N 37°31' W 029°57'1412.7
2015-Jan-15 16:24N 37°31' W 030°15'1112.8
2015-Jan-15 15:34N 37°30' W 030°28'1312.5
2015-Jan-15 14:33N 37°29' W 030°44'  

Dump ship's entire track history